createdAt,value
2022-09-26T00:01:08.157Z,11.43
2022-09-26T00:03:35.490Z,11.38
2022-09-26T00:06:03.838Z,11.30
2022-09-26T00:08:30.408Z,11.26
2022-09-26T00:11:01.545Z,11.19
2022-09-26T00:13:29.853Z,11.20
2022-09-26T00:15:57.477Z,11.20
2022-09-26T00:18:24.544Z,11.22
2022-09-26T00:20:51.486Z,11.17
2022-09-26T00:23:18.082Z,11.19
2022-09-26T00:25:52.055Z,11.16
2022-09-26T00:28:19.302Z,11.20
2022-09-26T00:30:45.790Z,11.20
2022-09-26T00:33:12.366Z,11.19
2022-09-26T00:35:39.271Z,11.19
2022-09-26T00:38:05.717Z,11.14
2022-09-26T00:40:32.994Z,11.12
2022-09-26T00:42:59.480Z,11.09
2022-09-26T00:45:30.455Z,11.06
2022-09-26T00:48:04.095Z,11.03
2022-09-26T00:50:40.407Z,11.03
2022-09-26T00:53:06.738Z,10.99
2022-09-26T00:55:37.629Z,10.95
2022-09-26T00:58:09.370Z,10.89
2022-09-26T01:00:37.558Z,10.83
2022-09-26T01:03:04.085Z,10.75
2022-09-26T01:05:31.621Z,10.68
2022-09-26T01:07:58.979Z,10.56
2022-09-26T01:10:26.738Z,10.49
2022-09-26T01:12:53.710Z,10.34
2022-09-26T01:15:20.220Z,10.21
2022-09-26T01:17:46.804Z,10.15
2022-09-26T01:20:28.553Z,10.07
2022-09-26T01:23:06.731Z,9.98
2022-09-26T01:25:39.789Z,9.94
2022-09-26T01:28:30.760Z,9.83
2022-09-26T01:31:08.834Z,9.82
2022-09-26T01:34:11.503Z,9.72
2022-09-26T01:36:53.901Z,9.67
2022-09-26T01:39:28.550Z,9.66
2022-09-26T01:42:16.034Z,9.60
2022-09-26T01:45:06.394Z,9.62
2022-09-26T01:48:00.748Z,9.63
2022-09-26T01:50:53.113Z,9.63
2022-09-26T01:53:25.014Z,9.69
2022-09-26T01:56:11.658Z,9.74
2022-09-26T01:58:59.854Z,9.82
2022-09-26T02:01:29.488Z,9.84
2022-09-26T02:04:01.328Z,9.90
2022-09-26T02:06:35.973Z,9.91
2022-09-26T02:09:13.240Z,9.94
2022-09-26T02:11:42.674Z,9.95
2022-09-26T02:14:15.545Z,9.94
2022-09-26T02:16:47.233Z,9.95
2022-09-26T02:19:20.151Z,10.01
2022-09-26T02:21:47.373Z,9.97
2022-09-26T02:24:14.381Z,10.03
2022-09-26T02:26:42.306Z,10.00
2022-09-26T02:29:11.897Z,10.00
2022-09-26T02:31:44.061Z,10.04
2022-09-26T02:34:10.660Z,10.01
2022-09-26T02:36:38.268Z,10.04
2022-09-26T02:39:04.728Z,10.01
2022-09-26T02:41:47.488Z,9.93
2022-09-26T02:44:23.386Z,9.91
2022-09-26T02:47:15.692Z,9.86
2022-09-26T02:50:16.783Z,9.82
2022-09-26T02:53:17.101Z,9.73
2022-09-26T02:56:03.362Z,9.62
2022-09-26T02:58:54.408Z,9.59
2022-09-26T03:01:31.037Z,9.56
2022-09-26T03:04:04.749Z,9.55
2022-09-26T03:06:36.987Z,9.52
2022-09-26T03:09:05.778Z,9.52
2022-09-26T03:11:33.725Z,9.50
2022-09-26T03:14:00.784Z,9.43
2022-09-26T03:16:34.130Z,9.36
2022-09-26T03:19:13.041Z,9.31
2022-09-26T03:21:39.576Z,9.21
2022-09-26T03:24:06.170Z,9.14
2022-09-26T03:26:33.144Z,9.04
2022-09-26T03:29:00.016Z,8.97
2022-09-26T03:31:27.135Z,8.92
2022-09-26T03:33:54.020Z,8.87
2022-09-26T03:36:23.966Z,8.78
2022-09-26T03:38:50.398Z,8.73
2022-09-26T03:41:16.819Z,8.67
2022-09-26T03:43:43.833Z,8.63
2022-09-26T03:46:12.282Z,8.60
2022-09-26T03:48:39.410Z,8.53
2022-09-26T03:51:09.510Z,8.49
2022-09-26T03:53:38.332Z,8.46
2022-09-26T03:56:12.957Z,8.46
2022-09-26T03:58:39.626Z,8.43
2022-09-26T04:01:11.852Z,8.39
2022-09-26T04:03:40.255Z,8.34
2022-09-26T04:06:08.803Z,8.29
2022-09-26T04:08:37.478Z,8.21
2022-09-26T04:11:06.384Z,8.15
2022-09-26T04:13:50.585Z,8.07
2022-09-26T04:16:20.152Z,8.03
2022-09-26T04:18:47.031Z,7.99
2022-09-26T04:21:16.709Z,7.98
2022-09-26T04:23:44.188Z,8.01
2022-09-26T04:26:22.935Z,7.99
2022-09-26T04:28:55.392Z,7.92
2022-09-26T04:31:23.414Z,7.86
2022-09-26T04:33:50.934Z,7.79
2022-09-26T04:36:18.079Z,7.77
2022-09-26T04:38:44.564Z,7.68
2022-09-26T04:41:13.620Z,7.61
2022-09-26T04:43:41.013Z,7.57
2022-09-26T04:46:10.154Z,7.54
2022-09-26T04:48:36.711Z,7.48
2022-09-26T04:51:14.797Z,7.47
2022-09-26T04:53:41.801Z,7.40
2022-09-26T04:56:10.946Z,7.37
2022-09-26T04:58:38.859Z,7.34
2022-09-26T05:01:07.193Z,7.30
2022-09-26T05:03:33.616Z,7.31
2022-09-26T05:06:00.018Z,7.33
2022-09-26T05:08:26.928Z,7.31
2022-09-26T05:10:55.192Z,7.33
2022-09-26T05:13:25.979Z,7.34
2022-09-26T05:15:56.011Z,7.34
2022-09-26T05:18:24.897Z,7.35
2022-09-26T05:20:52.178Z,7.37
2022-09-26T05:23:44.390Z,7.40
2022-09-26T05:26:19.862Z,7.41
2022-09-26T05:29:06.957Z,7.46
2022-09-26T05:31:38.008Z,7.53
2022-09-26T05:34:18.386Z,7.60
2022-09-26T05:36:45.782Z,7.64
2022-09-26T05:39:30.606Z,7.70
2022-09-26T05:41:58.846Z,7.79
2022-09-26T05:44:25.758Z,7.86
2022-09-26T05:46:52.218Z,7.95
2022-09-26T05:49:18.737Z,8.02
2022-09-26T05:51:45.200Z,8.10
2022-09-26T05:54:11.585Z,8.22
2022-09-26T05:56:37.989Z,8.29
2022-09-26T05:59:05.518Z,8.33
2022-09-26T06:01:34.026Z,8.44
2022-09-26T06:04:02.764Z,8.54
2022-09-26T06:06:29.933Z,8.71
2022-09-26T06:08:56.390Z,8.80
2022-09-26T06:11:24.931Z,8.89
2022-09-26T06:13:51.322Z,8.98
2022-09-26T06:16:20.684Z,9.11
2022-09-26T06:18:49.152Z,9.25
2022-09-26T06:21:17.566Z,9.40
2022-09-26T06:23:44.954Z,9.56
2022-09-26T06:26:23.476Z,9.69
2022-09-26T06:28:54.867Z,9.84
2022-09-26T06:31:22.009Z,9.95
2022-09-26T06:33:53.226Z,10.07
2022-09-26T06:36:21.798Z,10.17
2022-09-26T06:38:48.960Z,10.31
2022-09-26T06:41:16.362Z,10.42
2022-09-26T06:43:45.160Z,10.56
2022-09-26T06:46:12.899Z,10.72
2022-09-26T06:48:39.315Z,10.80
2022-09-26T06:51:05.999Z,10.92
2022-09-26T06:53:34.747Z,11.02
2022-09-26T06:56:01.740Z,11.12
2022-09-26T06:58:28.142Z,11.22
2022-09-26T07:00:54.608Z,11.30
2022-09-26T07:03:22.043Z,11.48
2022-09-26T07:05:48.543Z,11.62
2022-09-26T07:08:14.967Z,11.70
2022-09-26T07:10:41.354Z,11.72
2022-09-26T07:13:09.421Z,11.85
2022-09-26T07:15:37.505Z,12.03
2022-09-26T07:18:06.402Z,12.19
2022-09-26T07:20:37.442Z,12.44
2022-09-26T07:23:05.452Z,12.63
2022-09-26T07:25:33.246Z,13.19
2022-09-26T07:28:00.305Z,14.06
2022-09-26T07:30:28.193Z,14.96
2022-09-26T07:33:00.567Z,15.78
2022-09-26T07:35:27.273Z,16.53
2022-09-26T07:37:53.707Z,17.43
2022-09-26T07:40:21.106Z,18.26
2022-09-26T07:43:09.350Z,18.03
2022-09-26T07:45:52.874Z,16.74
2022-09-26T07:48:37.723Z,16.21
2022-09-26T07:51:09.009Z,16.59
2022-09-26T07:53:36.637Z,17.27
2022-09-26T07:56:05.787Z,16.88
2022-09-26T07:58:33.722Z,15.64
2022-09-26T08:01:00.070Z,15.85
2022-09-26T08:03:29.469Z,16.15
2022-09-26T08:05:58.478Z,16.93
2022-09-26T08:08:25.148Z,17.80
2022-09-26T08:10:51.604Z,18.73
2022-09-26T08:13:18.245Z,18.68
2022-09-26T08:15:44.653Z,17.21
2022-09-26T08:18:11.073Z,18.36
2022-09-26T08:20:38.100Z,20.42
2022-09-26T08:23:04.565Z,20.72
2022-09-26T08:25:30.913Z,22.27
2022-09-26T08:27:59.483Z,22.68
2022-09-26T08:30:28.534Z,21.88
2022-09-26T08:32:58.987Z,23.32
2022-09-26T08:35:26.143Z,22.68
2022-09-26T08:37:52.698Z,21.44
2022-09-26T08:40:27.274Z,23.16
2022-09-26T08:43:04.314Z,20.46
2022-09-26T08:46:09.747Z,21.27
2022-09-26T08:48:51.860Z,21.68
2022-09-26T08:51:32.402Z,21.72
2022-09-26T08:54:09.690Z,21.68
2022-09-26T08:56:41.062Z,20.70
2022-09-26T08:59:13.988Z,20.50
2022-09-26T09:01:43.262Z,22.02
2022-09-26T09:04:15.377Z,22.16
2022-09-26T09:06:43.859Z,21.27
2022-09-26T09:09:15.715Z,21.79
2022-09-26T09:12:23.694Z,22.98
2022-09-26T09:15:39.714Z,24.66
2022-09-26T09:18:31.476Z,24.10
2022-09-26T09:21:10.179Z,21.30
2022-09-26T09:23:50.338Z,21.31
2022-09-26T09:29:26.693Z,24.45
2022-09-26T09:31:54.578Z,24.62
2022-09-26T09:34:34.579Z,24.48
2022-09-26T09:37:10.974Z,25.58
2022-09-26T09:39:42.123Z,25.95
2022-09-26T09:42:27.500Z,24.99
2022-09-26T09:45:19.849Z,23.05
2022-09-26T09:47:46.594Z,21.75
2022-09-26T09:50:30.448Z,21.83
2022-09-26T09:53:18.484Z,22.67
2022-09-26T09:56:12.753Z,20.53
2022-09-26T09:59:15.615Z,19.98
2022-09-26T10:01:45.201Z,20.52
2022-09-26T10:04:29.659Z,20.84
2022-09-26T10:06:56.148Z,20.14
2022-09-26T10:09:36.024Z,20.29
2022-09-26T10:12:16.159Z,19.45
2022-09-26T10:14:56.614Z,19.18
2022-09-26T10:17:23.897Z,19.16
2022-09-26T10:19:50.612Z,19.19
2022-09-26T10:22:25.928Z,18.85
2022-09-26T10:24:59.758Z,20.62
2022-09-26T10:27:40.757Z,20.86
2022-09-26T10:30:19.220Z,19.22
2022-09-26T10:32:56.395Z,18.51
2022-09-26T10:35:44.567Z,17.94
2022-09-26T10:38:22.852Z,17.59
2022-09-26T10:41:03.511Z,17.86
2022-09-26T10:43:32.753Z,18.07
2022-09-26T10:46:15.047Z,17.73
2022-09-26T10:48:51.776Z,17.59
2022-09-26T10:51:37.253Z,17.46
2022-09-26T10:54:19.141Z,17.27
2022-09-26T10:56:54.158Z,17.49
2022-09-26T10:59:26.661Z,17.59
2022-09-26T11:02:03.684Z,17.69
2022-09-26T11:04:52.149Z,17.75
2022-09-26T11:07:24.747Z,16.87
2022-09-26T11:09:59.981Z,17.30
2022-09-26T11:12:29.105Z,17.07
2022-09-26T11:15:15.884Z,17.00
2022-09-26T11:17:48.036Z,16.93
2022-09-26T11:20:27.187Z,17.11
2022-09-26T11:23:12.206Z,17.25
2022-09-26T11:25:57.977Z,16.88
2022-09-26T11:28:49.169Z,17.68
2022-09-26T11:31:26.634Z,17.82
2022-09-26T11:33:54.032Z,17.72
2022-09-26T11:37:00.705Z,18.04
2022-09-26T11:39:36.246Z,17.53
2022-09-26T11:42:07.074Z,17.55
2022-09-26T11:44:33.405Z,17.79
2022-09-26T11:47:21.733Z,17.31
2022-09-26T11:50:10.966Z,17.55
2022-09-26T11:53:01.519Z,16.74
2022-09-26T11:55:39.434Z,16.57
2022-09-26T11:58:39.905Z,16.63
2022-09-26T12:01:27.810Z,17.79
2022-09-26T12:04:27.192Z,18.88
2022-09-26T12:07:17.908Z,18.51
2022-09-26T12:10:09.600Z,17.80
2022-09-26T12:12:56.536Z,18.01
2022-09-26T12:15:33.395Z,17.71
2022-09-26T12:18:27.342Z,17.31
2022-09-26T12:21:29.000Z,17.21
2022-09-26T12:24:22.470Z,17.25
2022-09-26T12:27:06.689Z,17.31
2022-09-26T12:29:55.218Z,17.39
2022-09-26T12:33:00.290Z,17.10
2022-09-26T12:35:37.692Z,17.38
2022-09-26T12:38:07.350Z,17.66
2022-09-26T12:40:36.968Z,17.69
2022-09-26T12:43:42.005Z,17.03
2022-09-26T12:46:34.948Z,17.17
2022-09-26T12:49:25.372Z,17.52
2022-09-26T12:51:55.075Z,17.62
2022-09-26T12:54:40.225Z,17.69
2022-09-26T12:57:38.479Z,17.15
2022-09-26T13:00:18.534Z,17.30
2022-09-26T13:03:16.572Z,17.03
2022-09-26T13:06:06.286Z,17.10
2022-09-26T13:09:12.038Z,17.30
2022-09-26T13:12:08.169Z,17.51
2022-09-26T13:15:15.208Z,17.85
2022-09-26T13:17:47.036Z,17.96
2022-09-26T13:20:27.225Z,19.98
2022-09-26T13:23:06.578Z,18.78
2022-09-26T13:25:50.722Z,18.11
2022-09-26T13:28:33.727Z,18.11
2022-09-26T13:31:05.919Z,17.53
2022-09-26T13:33:40.167Z,17.82
2022-09-26T13:36:09.595Z,18.36
2022-09-26T13:38:45.891Z,18.98
2022-09-26T13:41:49.879Z,18.91
2022-09-26T13:44:55.758Z,18.89
2022-09-26T13:47:37.823Z,19.45
2022-09-26T13:50:23.574Z,19.03
2022-09-26T13:53:18.669Z,18.64
2022-09-26T13:55:45.089Z,18.09
2022-09-26T13:58:22.441Z,17.39
2022-09-26T14:00:52.379Z,17.86
2022-09-26T14:03:22.984Z,17.61
2022-09-26T14:05:52.495Z,17.76
2022-09-26T14:08:43.685Z,17.72
2022-09-26T14:11:30.359Z,17.55
2022-09-26T14:14:17.096Z,17.61
2022-09-26T14:17:23.921Z,17.52
2022-09-26T14:19:57.154Z,17.56
2022-09-26T14:22:35.230Z,17.71
2022-09-26T14:25:02.479Z,18.00
2022-09-26T14:27:37.866Z,18.16
2022-09-26T14:30:30.425Z,18.43
2022-09-26T14:33:03.328Z,18.26
2022-09-26T14:35:33.356Z,17.79
2022-09-26T14:38:14.865Z,17.53
2022-09-26T14:40:54.319Z,17.25
2022-09-26T14:43:24.290Z,17.17
2022-09-26T14:46:17.615Z,16.88
2022-09-26T14:48:44.960Z,16.63
2022-09-26T14:51:11.326Z,16.50
2022-09-26T14:53:48.326Z,16.29
2022-09-26T14:56:41.193Z,16.22
2022-09-26T14:59:16.478Z,16.25
2022-09-26T15:01:46.747Z,16.43
2022-09-26T15:04:23.821Z,17.01
2022-09-26T15:07:16.242Z,17.38
2022-09-26T15:09:47.605Z,17.86
2022-09-26T15:12:19.799Z,17.66
2022-09-26T15:15:08.934Z,16.69
2022-09-26T15:17:41.543Z,16.67
2022-09-26T15:20:15.747Z,16.83
2022-09-26T15:22:43.138Z,16.64
2022-09-26T15:25:20.267Z,17.10
2022-09-26T15:27:50.326Z,17.15
2022-09-26T15:30:20.033Z,17.12
2022-09-26T15:32:50.313Z,17.22
2022-09-26T15:35:16.917Z,16.95
2022-09-26T15:37:43.625Z,16.87
2022-09-26T15:40:16.889Z,16.94
2022-09-26T15:42:58.762Z,16.77
2022-09-26T15:45:30.052Z,16.70
2022-09-26T15:47:59.118Z,16.55
2022-09-26T15:50:29.815Z,16.26
2022-09-26T15:53:03.822Z,15.98
2022-09-26T15:55:50.527Z,15.77
2022-09-26T15:58:21.693Z,15.61
2022-09-26T16:00:51.595Z,15.49
2022-09-26T16:03:27.347Z,15.30
2022-09-26T16:05:54.884Z,15.22
2022-09-26T16:08:25.214Z,15.07
2022-09-26T16:11:01.876Z,14.98
2022-09-26T16:13:35.818Z,14.86
2022-09-26T16:16:06.093Z,14.75
2022-09-26T16:18:52.438Z,14.65
2022-09-26T16:21:21.864Z,14.57
2022-09-26T16:23:56.440Z,14.46
2022-09-26T16:26:40.085Z,14.32
2022-09-26T16:29:08.376Z,14.17
2022-09-26T16:31:52.706Z,14.00
2022-09-26T16:34:26.019Z,13.94
2022-09-26T16:36:53.298Z,13.79
2022-09-26T16:39:28.769Z,13.63
2022-09-26T16:42:12.760Z,13.45
2022-09-26T16:44:41.396Z,13.48
2022-09-26T16:47:47.643Z,13.42
2022-09-26T16:50:27.304Z,13.24
2022-09-26T16:52:54.926Z,13.11
2022-09-26T16:55:22.912Z,12.93
2022-09-26T16:57:54.448Z,12.83
2022-09-26T17:00:42.818Z,12.73
2022-09-26T17:03:31.626Z,12.54
2022-09-26T17:05:59.927Z,12.43
2022-09-26T17:08:27.624Z,12.36
2022-09-26T17:10:56.267Z,12.26
2022-09-26T17:13:25.027Z,12.33
2022-09-26T17:15:57.445Z,12.25
2022-09-26T17:18:29.508Z,12.15
2022-09-26T17:20:57.030Z,12.06
2022-09-26T17:23:39.447Z,12.01
2022-09-26T17:26:07.759Z,11.92
2022-09-26T17:28:39.268Z,12.01
2022-09-26T17:31:08.063Z,11.95
2022-09-26T17:33:40.482Z,11.86
2022-09-26T17:36:10.865Z,11.82
2022-09-26T17:38:41.129Z,11.72
2022-09-26T17:41:12.424Z,11.68
2022-09-26T17:43:38.944Z,11.62
2022-09-26T17:46:06.312Z,11.60
2022-09-26T17:48:33.348Z,11.55
2022-09-26T17:51:02.112Z,11.54
2022-09-26T17:53:37.068Z,11.48
2022-09-26T17:56:07.782Z,11.43
2022-09-26T17:58:36.937Z,11.40
2022-09-26T18:01:04.595Z,11.35
2022-09-26T18:03:34.379Z,11.34
2022-09-26T18:06:01.473Z,11.33
2022-09-26T18:08:36.456Z,11.33
2022-09-26T18:11:05.266Z,11.37
2022-09-26T18:13:34.703Z,11.38
2022-09-26T18:16:01.551Z,11.37
2022-09-26T18:18:29.921Z,11.37
2022-09-26T18:20:58.694Z,11.67
2022-09-26T18:23:29.044Z,11.58
2022-09-26T18:26:00.924Z,11.54
2022-09-26T18:28:27.841Z,11.74
2022-09-26T18:30:58.578Z,11.71
2022-09-26T18:33:27.803Z,11.77
2022-09-26T18:35:55.321Z,11.75
2022-09-26T18:38:22.237Z,11.77
2022-09-26T18:40:58.758Z,11.85
2022-09-26T18:43:29.410Z,11.98
2022-09-26T18:45:57.524Z,11.98
2022-09-26T18:48:26.014Z,12.03
2022-09-26T18:50:53.841Z,12.16
2022-09-26T18:53:22.514Z,12.16
2022-09-26T18:56:07.692Z,12.33
2022-09-26T18:58:34.798Z,12.68
2022-09-26T19:01:25.313Z,12.74
2022-09-26T19:03:52.077Z,12.80
2022-09-26T19:06:23.750Z,12.77
2022-09-26T19:08:56.632Z,12.83
2022-09-26T19:11:24.949Z,12.94
2022-09-26T19:13:54.191Z,13.01
2022-09-26T19:16:21.610Z,13.11
2022-09-26T19:18:48.303Z,13.14
2022-09-26T19:21:24.266Z,13.05
2022-09-26T19:23:51.510Z,13.01
2022-09-26T19:26:32.434Z,13.10
2022-09-26T19:28:59.516Z,13.05
2022-09-26T19:31:26.645Z,13.00
2022-09-26T19:33:53.755Z,12.98
2022-09-26T19:36:20.846Z,12.93
2022-09-26T19:38:47.617Z,13.01
2022-09-26T19:41:14.171Z,12.98
2022-09-26T19:43:40.654Z,12.97
2022-09-26T19:46:13.217Z,13.00
2022-09-26T19:48:42.277Z,12.97
2022-09-26T19:51:16.775Z,12.97
2022-09-26T19:53:43.289Z,13.04
2022-09-26T19:56:09.816Z,12.94
2022-09-26T19:58:36.496Z,12.91
2022-09-26T20:01:14.217Z,12.85
2022-09-26T20:03:41.782Z,12.84
2022-09-26T20:06:15.132Z,12.79
2022-09-26T20:08:41.702Z,12.71
2022-09-26T20:11:09.290Z,12.65
2022-09-26T20:13:55.934Z,12.67
2022-09-26T20:16:23.125Z,12.68
2022-09-26T20:18:51.166Z,12.64
2022-09-26T20:21:22.442Z,12.64
2022-09-26T20:23:48.925Z,12.57
2022-09-26T20:26:17.227Z,12.57
2022-09-26T20:28:44.100Z,12.59
2022-09-26T20:31:23.513Z,12.60
2022-09-26T20:33:51.291Z,12.56
2022-09-26T20:36:24.804Z,12.50
2022-09-26T20:38:55.643Z,12.43
2022-09-26T20:41:26.001Z,12.50
2022-09-26T20:44:01.620Z,12.49
2022-09-26T20:46:37.331Z,12.43
2022-09-26T20:49:07.538Z,12.37
2022-09-26T20:51:35.034Z,12.36
2022-09-26T20:54:02.310Z,12.34
2022-09-26T20:56:29.115Z,12.32
2022-09-26T20:58:55.513Z,12.33
2022-09-26T21:01:22.445Z,12.29
2022-09-26T21:03:51.994Z,12.28
2022-09-26T21:06:21.105Z,12.37
2022-09-26T21:08:48.185Z,12.36
2022-09-26T21:11:18.649Z,12.39
2022-09-26T21:13:45.428Z,12.42
2022-09-26T21:16:13.983Z,12.47
2022-09-26T21:18:42.722Z,12.43
2022-09-26T21:21:22.632Z,12.42
2022-09-26T21:23:49.650Z,12.46
2022-09-26T21:26:19.337Z,12.49
2022-09-26T21:28:46.546Z,12.50
2022-09-26T21:31:22.193Z,12.49
2022-09-26T21:33:49.669Z,12.42
2022-09-26T21:36:17.490Z,12.37
2022-09-26T21:38:44.365Z,12.30
2022-09-26T21:41:12.323Z,12.23
2022-09-26T21:43:45.070Z,12.25
2022-09-26T21:46:11.582Z,12.19
2022-09-26T21:48:38.068Z,12.21
2022-09-26T21:51:05.038Z,12.09
2022-09-26T21:54:00.539Z,12.08
2022-09-26T21:56:31.567Z,12.05
2022-09-26T21:58:58.486Z,12.03
2022-09-26T22:01:24.990Z,11.99
2022-09-26T22:03:51.470Z,11.92
2022-09-26T22:06:17.917Z,11.84
2022-09-26T22:08:44.338Z,11.78
2022-09-26T22:11:11.028Z,11.75
2022-09-26T22:13:38.128Z,11.68
2022-09-26T22:16:06.608Z,11.70
2022-09-26T22:18:38.895Z,11.75
2022-09-26T22:21:07.279Z,11.72
2022-09-26T22:23:34.506Z,11.72
2022-09-26T22:26:01.655Z,11.70
2022-09-26T22:28:28.804Z,11.68
2022-09-26T22:30:55.808Z,11.70
2022-09-26T22:33:22.829Z,11.68
2022-09-26T22:35:50.360Z,11.70
2022-09-26T22:38:20.706Z,11.68
2022-09-26T22:40:59.001Z,11.67
2022-09-26T22:43:26.442Z,11.68
2022-09-26T22:45:59.805Z,11.67
2022-09-26T22:48:29.934Z,11.71
2022-09-26T22:50:56.842Z,11.75
2022-09-26T22:53:23.277Z,11.79
2022-09-26T22:55:56.374Z,11.81
2022-09-26T22:58:23.704Z,11.77
2022-09-26T23:00:50.297Z,11.77
2022-09-26T23:03:17.421Z,11.77
2022-09-26T23:05:46.086Z,11.81
2022-09-26T23:08:12.490Z,11.79
2022-09-26T23:10:38.909Z,11.77
2022-09-26T23:13:05.386Z,11.82
2022-09-26T23:15:32.438Z,11.78
2022-09-26T23:17:58.842Z,11.79
2022-09-26T23:20:25.343Z,11.79
2022-09-26T23:22:51.837Z,11.82
2022-09-26T23:25:18.244Z,11.84
2022-09-26T23:27:44.658Z,11.79
2022-09-26T23:30:11.809Z,11.79
2022-09-26T23:32:38.224Z,11.77
2022-09-26T23:35:05.173Z,11.74
2022-09-26T23:37:32.523Z,11.70
2022-09-26T23:39:58.943Z,11.62
2022-09-26T23:42:25.386Z,11.61
2022-09-26T23:44:51.774Z,11.64
2022-09-26T23:47:18.165Z,11.58
2022-09-26T23:49:44.583Z,11.58
2022-09-26T23:52:10.999Z,11.57
2022-09-26T23:54:37.448Z,11.55
2022-09-26T23:57:03.950Z,11.54
2022-09-26T23:59:30.401Z,11.54
